createdAt,value
2022-08-22T00:02:20.574Z,17.22
2022-08-22T00:02:59.391Z,17.05
2022-08-22T00:03:07.362Z,17.02
2022-08-22T00:04:47.589Z,17.23
2022-08-22T00:07:20.670Z,17.29
2022-08-22T00:09:53.593Z,17.50
2022-08-22T00:12:37.608Z,17.36
2022-08-22T00:15:41.982Z,17.35
2022-08-22T00:18:28.678Z,17.37
2022-08-22T00:21:08.708Z,17.43
2022-08-22T00:23:41.743Z,17.50
2022-08-22T00:26:15.547Z,17.55
2022-08-22T00:29:12.092Z,17.45
2022-08-22T00:31:52.070Z,17.43
2022-08-22T00:34:24.934Z,17.46
2022-08-22T00:36:59.225Z,17.49
2022-08-22T00:39:32.627Z,17.48
2022-08-22T00:42:31.291Z,17.46
2022-08-22T00:45:02.238Z,17.49
2022-08-22T00:47:31.381Z,17.44
2022-08-22T00:50:01.165Z,17.47
2022-08-22T00:52:28.537Z,17.47
2022-08-22T00:55:15.759Z,17.50
2022-08-22T00:57:42.917Z,17.51
2022-08-22T01:00:15.739Z,17.53
2022-08-22T01:02:50.410Z,17.50
2022-08-22T01:05:35.626Z,17.42
2022-08-22T01:08:09.541Z,17.47
2022-08-22T01:10:49.582Z,17.48
2022-08-22T01:13:20.505Z,17.47
2022-08-22T01:15:48.032Z,17.49
2022-08-22T01:18:24.095Z,17.52
2022-08-22T01:21:03.601Z,17.59
2022-08-22T01:23:30.387Z,17.59
2022-08-22T01:26:17.035Z,17.60
2022-08-22T01:28:46.219Z,17.49
2022-08-22T01:31:42.612Z,17.51
2022-08-22T01:34:32.729Z,17.55
2022-08-22T01:37:18.841Z,17.47
2022-08-22T01:39:45.691Z,17.43
2022-08-22T01:42:12.932Z,17.43
2022-08-22T01:45:00.517Z,17.40
2022-08-22T01:47:36.779Z,17.42
2022-08-22T01:50:19.775Z,17.42
2022-08-22T01:53:07.119Z,17.38
2022-08-22T01:55:41.337Z,17.33
2022-08-22T01:58:22.403Z,17.36
2022-08-22T02:00:52.263Z,17.34
2022-08-22T02:03:27.972Z,17.39
2022-08-22T02:06:01.015Z,17.32
2022-08-22T02:08:37.439Z,17.31
2022-08-22T02:11:06.139Z,17.29
2022-08-22T02:13:41.146Z,17.41
2022-08-22T02:16:18.027Z,17.32
2022-08-22T02:19:04.589Z,17.25
2022-08-22T02:21:44.105Z,17.22
2022-08-22T02:24:30.075Z,17.28
2022-08-22T02:27:20.041Z,17.16
2022-08-22T02:29:50.311Z,17.21
2022-08-22T02:32:29.852Z,17.14
2022-08-22T02:35:01.927Z,17.23
2022-08-22T02:37:32.832Z,17.17
2022-08-22T02:40:10.347Z,17.14
2022-08-22T02:42:43.483Z,17.26
2022-08-22T02:45:10.599Z,17.17
2022-08-22T02:47:46.578Z,17.16
2022-08-22T02:50:19.148Z,17.15
2022-08-22T02:52:46.794Z,17.12
2022-08-22T02:55:16.999Z,17.14
2022-08-22T02:57:48.022Z,17.25
2022-08-22T03:00:30.720Z,17.20
2022-08-22T03:02:59.028Z,17.22
2022-08-22T03:05:28.361Z,17.24
2022-08-22T03:08:15.397Z,17.25
2022-08-22T03:10:47.482Z,17.27
2022-08-22T03:13:19.216Z,17.18
2022-08-22T03:15:56.515Z,17.17
2022-08-22T03:18:32.429Z,17.18
2022-08-22T03:21:11.837Z,17.20
2022-08-22T03:23:41.068Z,17.19
2022-08-22T03:26:13.730Z,17.20
2022-08-22T03:28:40.574Z,17.20
2022-08-22T03:31:27.373Z,17.17
2022-08-22T03:34:13.637Z,17.25
2022-08-22T03:36:45.802Z,17.17
2022-08-22T03:39:18.954Z,17.20
2022-08-22T03:42:02.964Z,17.15
2022-08-22T03:44:35.825Z,17.17
2022-08-22T03:47:15.065Z,17.11
2022-08-22T03:49:47.878Z,17.08
2022-08-22T03:52:15.462Z,17.10
2022-08-22T03:54:45.272Z,17.18
2022-08-22T03:57:24.406Z,17.17
2022-08-22T04:00:12.560Z,17.13
2022-08-22T04:02:58.583Z,17.18
2022-08-22T04:05:38.126Z,17.22
2022-08-22T04:08:31.861Z,17.25
2022-08-22T04:11:11.041Z,17.24
2022-08-22T04:13:50.212Z,17.31
2022-08-22T04:16:26.431Z,17.26
2022-08-22T04:19:03.925Z,17.30
2022-08-22T04:21:55.052Z,17.29
2022-08-22T04:24:40.641Z,17.28
2022-08-22T04:27:16.867Z,17.27
2022-08-22T04:29:52.584Z,17.29
2022-08-22T04:32:28.926Z,17.28
2022-08-22T04:35:00.092Z,17.35
2022-08-22T04:37:46.645Z,17.36
2022-08-22T04:40:13.769Z,17.33
2022-08-22T04:42:49.898Z,17.41
2022-08-22T04:45:19.443Z,17.41
2022-08-22T04:47:56.753Z,17.29
2022-08-22T04:50:30.067Z,17.36
2022-08-22T04:53:03.263Z,17.30
2022-08-22T04:55:39.346Z,17.45
2022-08-22T04:58:19.627Z,17.41
2022-08-22T05:01:05.516Z,17.33
2022-08-22T05:03:34.800Z,17.41
2022-08-22T05:06:03.389Z,17.32
2022-08-22T05:08:32.478Z,17.30
2022-08-22T05:11:01.735Z,17.28
2022-08-22T05:13:29.151Z,17.34
2022-08-22T05:15:58.627Z,17.42
2022-08-22T05:18:34.501Z,17.36
2022-08-22T05:21:03.307Z,17.40
2022-08-22T05:23:50.458Z,17.48
2022-08-22T05:27:46.837Z,17.48
2022-08-22T05:30:16.504Z,17.56
2022-08-22T05:32:49.534Z,17.50
2022-08-22T05:35:18.501Z,17.42
2022-08-22T05:37:51.443Z,17.40
2022-08-22T05:40:26.964Z,17.51
2022-08-22T05:42:54.942Z,17.43
2022-08-22T05:45:22.943Z,17.42
2022-08-22T05:47:57.476Z,17.52
2022-08-22T05:50:27.718Z,17.41
2022-08-22T05:53:03.455Z,17.42
2022-08-22T05:55:49.035Z,17.56
2022-08-22T05:58:34.619Z,17.50
2022-08-22T06:01:22.034Z,17.54
2022-08-22T06:03:58.158Z,17.53
2022-08-22T06:06:27.177Z,17.49
2022-08-22T06:09:03.290Z,17.46
2022-08-22T06:11:37.808Z,17.53
2022-08-22T06:14:24.866Z,17.52
2022-08-22T06:17:12.523Z,17.54
2022-08-22T06:19:41.338Z,17.40
2022-08-22T06:22:09.403Z,17.33
2022-08-22T06:24:40.301Z,17.33
2022-08-22T06:27:12.988Z,17.45
2022-08-22T06:29:44.327Z,17.41
2022-08-22T06:32:16.720Z,17.38
2022-08-22T06:35:04.608Z,17.26
2022-08-22T06:37:39.295Z,17.30
2022-08-22T06:40:10.781Z,17.32
2022-08-22T06:42:40.116Z,17.31
2022-08-22T06:45:18.425Z,17.22
2022-08-22T06:47:53.762Z,17.20
2022-08-22T06:50:28.485Z,17.24
2022-08-22T06:53:07.685Z,17.23
2022-08-22T06:55:37.577Z,17.22
2022-08-22T06:58:11.970Z,17.17
2022-08-22T07:00:41.632Z,17.18
2022-08-22T07:03:14.044Z,17.28
2022-08-22T07:05:42.926Z,17.32
2022-08-22T07:08:12.199Z,17.32
2022-08-22T07:10:43.922Z,17.31
2022-08-22T07:13:15.936Z,17.26
2022-08-22T07:15:43.310Z,17.38
2022-08-22T07:18:17.722Z,17.32
2022-08-22T07:20:48.556Z,17.36
2022-08-22T07:23:31.721Z,17.46
2022-08-22T07:26:17.515Z,17.40
2022-08-22T07:28:58.380Z,17.41
2022-08-22T07:31:31.915Z,17.42
2022-08-22T07:34:08.247Z,17.47
2022-08-22T07:36:41.352Z,17.45
2022-08-22T07:39:11.054Z,17.45
2022-08-22T07:41:47.054Z,17.55
2022-08-22T07:44:18.275Z,17.68
2022-08-22T07:46:48.666Z,17.71
2022-08-22T07:49:15.528Z,17.73
2022-08-22T07:51:45.103Z,17.66
2022-08-22T07:54:14.507Z,17.62
2022-08-22T07:56:46.536Z,17.65
2022-08-22T07:59:17.033Z,17.66
2022-08-22T08:01:50.194Z,17.74
2022-08-22T08:04:19.710Z,17.72
2022-08-22T08:06:52.752Z,17.71
2022-08-22T08:09:20.237Z,17.71
2022-08-22T08:11:49.337Z,17.73
2022-08-22T08:14:20.047Z,17.69
2022-08-22T08:16:53.460Z,17.61
2022-08-22T08:19:21.085Z,17.72
2022-08-22T08:21:50.942Z,17.58
2022-08-22T08:24:20.852Z,17.69
2022-08-22T08:27:10.152Z,17.71
2022-08-22T08:29:37.488Z,17.47
2022-08-22T08:32:05.557Z,17.48
2022-08-22T08:34:32.596Z,17.50
2022-08-22T08:37:05.420Z,17.44
2022-08-22T08:39:35.296Z,17.42
2022-08-22T08:42:02.562Z,17.36
2022-08-22T08:44:37.345Z,17.39
2022-08-22T08:47:13.357Z,17.36
2022-08-22T08:49:43.459Z,17.41
2022-08-22T08:52:25.647Z,17.49
2022-08-22T08:54:58.133Z,17.60
2022-08-22T09:00:46.083Z,17.75
2022-08-22T09:03:35.046Z,17.71
2022-08-22T09:06:22.993Z,17.83
2022-08-22T09:08:55.836Z,17.74
2022-08-22T09:11:28.916Z,17.78
2022-08-22T09:14:01.924Z,17.79
2022-08-22T09:16:29.758Z,17.68
2022-08-22T09:19:13.317Z,17.71
2022-08-22T09:21:50.194Z,17.71
2022-08-22T09:24:27.882Z,17.69
2022-08-22T09:29:54.598Z,17.69
2022-08-22T09:32:28.666Z,17.73
2022-08-22T09:35:05.131Z,17.74
2022-08-22T09:37:55.518Z,17.79
2022-08-22T09:40:16.263Z,17.65
2022-08-22T09:40:42.894Z,17.72
2022-08-22T09:43:21.142Z,17.66
2022-08-22T09:45:53.170Z,17.64
2022-08-22T09:48:38.696Z,17.74
2022-08-22T09:51:31.261Z,17.73
2022-08-22T09:54:10.472Z,17.77
2022-08-22T09:56:52.860Z,17.84
2022-08-22T09:59:29.207Z,17.85
2022-08-22T10:02:27.407Z,17.88
2022-08-22T10:04:58.267Z,17.74
2022-08-22T10:07:35.414Z,17.79
2022-08-22T10:10:26.173Z,17.85
2022-08-22T10:13:04.142Z,17.89
2022-08-22T10:16:00.338Z,17.97
2022-08-22T10:18:30.717Z,17.99
2022-08-22T10:21:09.959Z,17.99
2022-08-22T10:24:25.612Z,17.95
2022-08-22T10:26:54.565Z,17.94
2022-08-22T10:29:34.884Z,18.05
2022-08-22T10:32:14.514Z,18.05
2022-08-22T10:34:44.640Z,18.02
2022-08-22T10:37:12.100Z,18.12
2022-08-22T10:39:48.693Z,18.10
2022-08-22T10:42:25.545Z,18.20
2022-08-22T10:45:01.192Z,18.25
2022-08-22T10:47:36.183Z,18.29
2022-08-22T10:50:08.697Z,18.40
2022-08-22T10:52:47.887Z,18.47
2022-08-22T10:55:25.182Z,18.47
2022-08-22T10:57:54.354Z,18.55
2022-08-22T11:00:22.500Z,18.61
2022-08-22T11:02:53.512Z,18.69
2022-08-22T11:05:23.831Z,18.84
2022-08-22T11:08:09.376Z,18.98
2022-08-22T11:10:36.544Z,18.88
2022-08-22T11:13:03.746Z,18.96
2022-08-22T11:15:51.170Z,19.01
2022-08-22T11:18:21.675Z,18.97
2022-08-22T11:21:16.485Z,18.90
2022-08-22T11:23:48.347Z,18.90
2022-08-22T11:26:41.707Z,18.92
2022-08-22T11:29:14.671Z,18.99
2022-08-22T11:31:51.320Z,19.07
2022-08-22T11:34:20.583Z,19.13
2022-08-22T11:36:51.943Z,19.07
2022-08-22T11:39:34.836Z,19.01
2022-08-22T11:42:01.629Z,19.22
2022-08-22T11:44:32.097Z,19.41
2022-08-22T11:47:02.249Z,19.62
2022-08-22T11:49:31.729Z,19.76
2022-08-22T11:52:02.853Z,19.96
2022-08-22T11:54:39.280Z,19.96
2022-08-22T11:57:11.576Z,19.98
2022-08-22T11:59:44.859Z,19.97
2022-08-22T12:02:35.012Z,20.08
2022-08-22T12:05:05.715Z,20.18
2022-08-22T12:07:36.343Z,20.21
2022-08-22T12:10:13.765Z,20.33
2022-08-22T12:13:06.038Z,20.41
2022-08-22T12:15:45.578Z,20.52
2022-08-22T12:18:34.004Z,20.56
2022-08-22T12:21:09.128Z,20.59
2022-08-22T12:23:55.962Z,20.55
2022-08-22T12:26:41.772Z,20.49
2022-08-22T12:29:15.689Z,20.42
2022-08-22T12:31:56.572Z,20.40
2022-08-22T12:34:29.739Z,20.10
2022-08-22T12:37:09.458Z,20.24
2022-08-22T12:39:43.573Z,20.20
2022-08-22T12:42:17.682Z,19.98
2022-08-22T12:44:45.512Z,19.89
2022-08-22T12:47:23.524Z,19.92
2022-08-22T12:49:56.675Z,19.80
2022-08-22T12:52:50.130Z,19.81
2022-08-22T12:55:32.628Z,19.90
2022-08-22T12:58:18.458Z,19.87
2022-08-22T13:00:47.495Z,19.97
2022-08-22T13:03:27.478Z,20.00
2022-08-22T13:06:00.368Z,20.02
2022-08-22T13:08:29.720Z,20.07
2022-08-22T13:10:59.252Z,19.98
2022-08-22T13:13:31.714Z,19.95
2022-08-22T13:16:09.462Z,19.76
2022-08-22T13:18:48.091Z,19.53
2022-08-22T13:21:31.574Z,19.46
2022-08-22T13:24:11.738Z,19.37
2022-08-22T13:26:46.534Z,19.39
2022-08-22T13:29:26.209Z,19.39
2022-08-22T13:32:01.975Z,19.30
2022-08-22T13:34:43.545Z,19.34
2022-08-22T13:37:16.744Z,19.21
2022-08-22T13:39:45.991Z,19.22
2022-08-22T13:42:30.300Z,19.27
2022-08-22T13:45:02.288Z,19.22
2022-08-22T13:47:34.383Z,19.31
2022-08-22T13:50:11.947Z,19.33
2022-08-22T13:52:55.136Z,19.39
2022-08-22T13:55:29.697Z,19.32
2022-08-22T13:58:00.962Z,19.13
2022-08-22T14:00:58.116Z,19.02
2022-08-22T14:03:28.872Z,18.84
2022-08-22T14:06:06.180Z,18.72
2022-08-22T14:08:46.273Z,18.71
2022-08-22T14:11:33.350Z,18.78
2022-08-22T14:14:02.325Z,18.75
2022-08-22T14:16:29.325Z,18.66
2022-08-22T14:19:08.321Z,18.66
2022-08-22T14:22:07.284Z,18.86
2022-08-22T14:24:45.740Z,18.77
2022-08-22T14:27:16.668Z,18.98
2022-08-22T14:29:43.551Z,19.34
2022-08-22T14:32:13.377Z,19.44
2022-08-22T14:34:45.416Z,19.60
2022-08-22T14:37:16.959Z,19.63
2022-08-22T14:39:47.617Z,19.63
2022-08-22T14:42:25.280Z,19.79
2022-08-22T14:45:26.140Z,19.92
2022-08-22T14:48:29.397Z,19.92
2022-08-22T14:50:59.907Z,19.87
2022-08-22T14:53:29.694Z,19.90
2022-08-22T14:56:02.865Z,19.86
2022-08-22T14:58:31.410Z,19.84
2022-08-22T15:01:09.804Z,19.85
2022-08-22T15:03:38.842Z,19.87
2022-08-22T15:06:07.293Z,19.83
2022-08-22T15:08:42.152Z,19.88
2022-08-22T15:11:14.646Z,19.85
2022-08-22T15:14:08.431Z,19.83
2022-08-22T15:16:43.487Z,19.82
2022-08-22T15:19:23.891Z,19.75
2022-08-22T15:21:54.727Z,19.79
2022-08-22T15:24:25.740Z,19.74
2022-08-22T15:26:55.357Z,19.67
2022-08-22T15:29:24.132Z,19.62
2022-08-22T15:31:52.446Z,19.54
2022-08-22T15:34:40.059Z,19.37
2022-08-22T15:37:07.804Z,19.29
2022-08-22T15:39:57.252Z,19.11
2022-08-22T15:42:25.831Z,19.01
2022-08-22T15:44:54.216Z,18.86
2022-08-22T15:47:27.647Z,18.79
2022-08-22T15:49:59.042Z,18.81
2022-08-22T15:52:30.365Z,18.74
2022-08-22T15:55:19.013Z,18.52
2022-08-22T15:58:00.152Z,18.40
2022-08-22T16:00:30.845Z,18.32
2022-08-22T16:03:01.540Z,18.37
2022-08-22T16:05:35.557Z,18.36
2022-08-22T16:08:05.085Z,18.35
2022-08-22T16:10:42.660Z,18.35
2022-08-22T16:13:12.727Z,18.25
2022-08-22T16:15:54.099Z,18.25
2022-08-22T16:18:39.452Z,18.08
2022-08-22T16:21:10.480Z,18.03
2022-08-22T16:23:50.722Z,18.02
2022-08-22T16:26:17.574Z,18.06
2022-08-22T16:28:58.786Z,18.07
2022-08-22T16:31:31.963Z,17.98
2022-08-22T16:34:20.368Z,17.95
2022-08-22T16:36:51.797Z,17.94
2022-08-22T16:39:22.137Z,17.97
2022-08-22T16:41:50.154Z,17.92
2022-08-22T16:44:34.823Z,17.85
2022-08-22T16:47:13.473Z,17.90
2022-08-22T16:49:49.457Z,17.87
2022-08-22T16:52:26.135Z,17.80
2022-08-22T16:55:04.150Z,17.80
2022-08-22T16:58:04.919Z,17.79
2022-08-22T17:00:31.722Z,17.72
2022-08-22T17:03:04.925Z,17.72
2022-08-22T17:05:48.270Z,17.64
2022-08-22T17:08:30.090Z,17.68
2022-08-22T17:11:01.094Z,17.67
2022-08-22T17:13:32.855Z,17.60
2022-08-22T17:16:03.269Z,17.63
2022-08-22T17:18:40.321Z,17.63
2022-08-22T17:21:07.300Z,17.51
2022-08-22T17:23:46.373Z,17.50
2022-08-22T17:26:32.187Z,17.53
2022-08-22T17:29:02.314Z,17.44
2022-08-22T17:31:38.261Z,17.44
2022-08-22T17:34:17.667Z,17.44
2022-08-22T17:36:59.648Z,17.46
2022-08-22T17:39:33.666Z,17.48
2022-08-22T17:42:03.672Z,17.45
2022-08-22T17:44:37.020Z,17.39
2022-08-22T17:47:33.424Z,17.40
2022-08-22T17:50:04.937Z,17.38
2022-08-22T17:52:43.412Z,17.41
2022-08-22T17:55:16.143Z,17.38
2022-08-22T17:57:51.795Z,17.35
2022-08-22T18:00:39.370Z,17.35
2022-08-22T18:03:06.649Z,17.35
2022-08-22T18:05:36.621Z,17.39
2022-08-22T18:11:13.520Z,17.36
2022-08-22T18:13:46.425Z,17.33
2022-08-22T18:16:24.289Z,17.34
2022-08-22T18:18:53.906Z,17.32
2022-08-22T18:21:24.728Z,17.34
2022-08-22T18:23:57.412Z,17.33
2022-08-22T18:26:24.658Z,17.32
2022-08-22T18:28:59.929Z,17.32
2022-08-22T18:31:50.276Z,17.34
2022-08-22T18:34:23.332Z,17.35
2022-08-22T18:37:07.025Z,17.36
2022-08-22T18:39:43.294Z,17.30
2022-08-22T18:42:29.828Z,17.32
2022-08-22T18:44:56.752Z,17.37
2022-08-22T18:47:32.653Z,17.39
2022-08-22T18:50:01.128Z,17.33
2022-08-22T18:52:28.816Z,17.26
2022-08-22T18:55:22.779Z,17.26
2022-08-22T18:58:04.728Z,17.24
2022-08-22T19:00:50.267Z,17.21
2022-08-22T19:03:49.911Z,17.18
2022-08-22T19:06:31.988Z,17.15
2022-08-22T19:08:59.481Z,17.17
2022-08-22T19:11:35.069Z,17.21
2022-08-22T19:14:22.556Z,17.20
2022-08-22T19:17:04.271Z,17.16
2022-08-22T19:20:00.375Z,17.15
2022-08-22T19:22:29.231Z,17.15
2022-08-22T19:25:02.390Z,17.18
2022-08-22T19:27:32.155Z,17.15
2022-08-22T19:30:05.040Z,17.16
2022-08-22T19:32:44.212Z,17.10
2022-08-22T19:35:23.515Z,17.10
2022-08-22T19:37:54.846Z,17.07
2022-08-22T19:40:40.764Z,17.04
2022-08-22T19:43:19.599Z,17.04
2022-08-22T19:45:46.781Z,17.11
2022-08-22T19:48:15.710Z,17.09
2022-08-22T19:50:45.524Z,17.10
2022-08-22T19:53:27.621Z,17.11
2022-08-22T19:56:03.640Z,17.11
2022-08-22T19:58:33.622Z,17.14
2022-08-22T20:01:03.683Z,17.15
2022-08-22T20:03:49.140Z,17.15
2022-08-22T20:06:43.455Z,17.21
2022-08-22T20:09:31.930Z,17.08
2022-08-22T20:12:03.906Z,17.08
2022-08-22T20:14:33.021Z,17.10
2022-08-22T20:16:59.794Z,17.11
2022-08-22T20:20:16.571Z,17.13
2022-08-22T20:22:41.218Z,17.17
2022-08-22T20:25:42.792Z,17.17
2022-08-22T20:28:31.510Z,17.21
2022-08-22T20:31:00.369Z,17.31
2022-08-22T20:33:35.492Z,17.29
2022-08-22T20:36:05.338Z,17.27
2022-08-22T20:38:38.704Z,17.39
2022-08-22T20:41:11.810Z,17.39
2022-08-22T20:43:54.066Z,17.46
2022-08-22T20:46:20.834Z,17.45
2022-08-22T20:48:50.025Z,17.46
2022-08-22T20:51:19.469Z,17.43
2022-08-22T20:53:56.778Z,17.41
2022-08-22T20:56:48.630Z,17.42
2022-08-22T20:59:23.374Z,17.45
2022-08-22T21:01:54.047Z,17.49
2022-08-22T21:04:21.586Z,17.41
2022-08-22T21:06:57.735Z,17.42
2022-08-22T21:09:43.753Z,17.45
2022-08-22T21:12:10.971Z,17.45
2022-08-22T21:14:44.428Z,17.44
2022-08-22T21:17:25.114Z,17.48
2022-08-22T21:19:52.797Z,17.48
2022-08-22T21:22:27.045Z,17.41
2022-08-22T21:24:55.294Z,17.47
2022-08-22T21:27:33.274Z,17.45
2022-08-22T21:30:01.582Z,17.41
2022-08-22T21:32:34.805Z,17.33
2022-08-22T21:35:03.896Z,17.28
2022-08-22T21:37:36.575Z,17.27
2022-08-22T21:40:21.466Z,17.29
2022-08-22T21:43:02.942Z,17.18
2022-08-22T21:45:35.882Z,17.11
2022-08-22T21:48:03.061Z,17.12
2022-08-22T21:50:37.922Z,17.03
2022-08-22T21:53:11.983Z,16.99
2022-08-22T21:55:43.819Z,16.91
2022-08-22T21:58:36.270Z,16.83
2022-08-22T22:01:25.027Z,16.80
2022-08-22T22:03:54.514Z,16.82
2022-08-22T22:06:21.653Z,16.88
2022-08-22T22:08:49.105Z,16.82
2022-08-22T22:11:16.471Z,16.83
2022-08-22T22:13:44.364Z,16.84
2022-08-22T22:16:14.534Z,16.92
2022-08-22T22:18:41.403Z,16.89
2022-08-22T22:21:08.693Z,16.94
2022-08-22T22:23:35.698Z,16.93
2022-08-22T22:26:03.873Z,16.94
2022-08-22T22:28:32.312Z,16.98
2022-08-22T22:30:59.199Z,16.94
2022-08-22T22:33:27.738Z,16.94
2022-08-22T22:35:55.965Z,16.90
2022-08-22T22:38:24.221Z,16.96
2022-08-22T22:40:52.303Z,16.98
2022-08-22T22:43:19.514Z,17.00
2022-08-22T22:45:46.350Z,17.03
2022-08-22T22:48:24.329Z,17.02
2022-08-22T22:50:55.165Z,17.04
2022-08-22T22:53:33.827Z,17.02
2022-08-22T22:56:06.894Z,17.07
2022-08-22T22:58:36.766Z,17.05
2022-08-22T23:01:11.652Z,17.02
2022-08-22T23:03:39.022Z,17.01
2022-08-22T23:06:10.310Z,17.00
2022-08-22T23:08:37.269Z,17.02
2022-08-22T23:11:15.740Z,17.04
2022-08-22T23:13:43.258Z,17.03
2022-08-22T23:16:12.116Z,17.02
2022-08-22T23:18:39.076Z,17.04
2022-08-22T23:21:26.515Z,17.05
2022-08-22T23:23:55.278Z,17.01
2022-08-22T23:26:22.089Z,17.00
2022-08-22T23:28:49.249Z,17.02
2022-08-22T23:31:18.716Z,17.04
2022-08-22T23:33:45.603Z,17.04
2022-08-22T23:36:18.817Z,17.04
2022-08-22T23:38:46.403Z,17.04
2022-08-22T23:41:14.147Z,16.99
2022-08-22T23:43:42.774Z,17.01
2022-08-22T23:46:10.536Z,17.00
2022-08-22T23:48:37.315Z,16.98
2022-08-22T23:51:04.570Z,17.02
2022-08-22T23:53:31.975Z,17.01
2022-08-22T23:56:08.524Z,17.02
2022-08-22T23:58:46.295Z,17.02
